Time;durP1;ratioP1;P1;durP2;ratioP2;P2;SDS_P1;SDS_P2;PMS_P1;PMS_P2;Temp;Humidity;BMP_temperature;BMP_pressure;BME280_temperature;BME280_humidity;BME280_pressure;Samples;Min_cycle;Max_cycle;Signal;HPM_P1;HPM_P2
2024/02/18 00:04:36;;;;;;;7.00;3.00;;;;;;;8.16;63.92;100496.66;231802;199;138995;-62
2024/02/18 00:09:40;;;;;;;4.60;3.00;;;;;;;8.12;63.99;100502.42;231761;197;137612;-61
2024/02/18 00:14:43;;;;;;;6.60;3.00;;;;;;;8.09;64.01;100514.35;231642;198;152621;-60
2024/02/18 00:19:47;;;;;;;5.50;2.80;;;;;;;8.02;64.08;100523.37;231617;199;138880;-61
2024/02/18 00:24:51;;;;;;;4.80;2.70;;;;;;;7.97;64.07;100532.35;231694;205;137944;-63
2024/02/18 00:29:54;;;;;;;5.50;2.80;;;;;;;7.87;64.00;100543.21;231846;197;152994;-63
2024/02/18 00:34:57;;;;;;;7.10;3.20;;;;;;;7.78;64.16;100546.11;231700;198;137123;-64
2024/02/18 00:40:03;;;;;;;5.80;2.80;;;;;;;7.77;64.20;100547.03;231789;197;139092;-63
2024/02/18 00:45:07;;;;;;;6.60;3.10;;;;;;;7.77;64.14;100549.69;231855;198;154235;-64
2024/02/18 00:50:11;;;;;;;6.70;3.20;;;;;;;7.76;64.05;100546.33;231788;197;137703;-63
2024/02/18 00:55:14;;;;;;;7.00;2.80;;;;;;;7.75;63.94;100549.91;231689;197;142471;-62
2024/02/18 01:00:17;;;;;;;6.60;3.30;;;;;;;7.71;63.88;100555.67;231825;198;154585;-58
2024/02/18 01:05:20;;;;;;;4.50;2.70;;;;;;;7.66;63.56;100562.16;231769;204;137776;-61
2024/02/18 01:10:24;;;;;;;7.70;2.90;;;;;;;7.63;63.35;100564.20;231994;200;137162;-60
2024/02/18 01:15:27;;;;;;;8.60;3.10;;;;;;;7.65;63.20;100576.31;231762;198;154446;-60
2024/02/18 01:20:30;;;;;;;4.80;2.80;;;;;;;7.70;62.67;100582.20;231763;201;138380;-61
2024/02/18 01:25:34;;;;;;;5.30;2.70;;;;;;;7.73;62.27;100584.77;231775;198;139395;-59
2024/02/18 01:30:37;;;;;;;4.30;2.70;;;;;;;7.74;61.71;100582.61;231721;204;153341;-61
2024/02/18 01:35:40;;;;;;;8.10;2.80;;;;;;;7.76;62.03;100584.50;231958;202;138044;-61
2024/02/18 01:40:44;;;;;;;4.30;2.70;;;;;;;7.78;62.27;100589.40;231840;198;138483;-62
2024/02/18 01:45:47;;;;;;;4.80;2.90;;;;;;;7.82;62.49;100591.95;231963;197;153723;-60
2024/02/18 01:50:51;;;;;;;6.90;3.10;;;;;;;7.87;62.55;100599.08;231776;198;138178;-60
2024/02/18 01:55:55;;;;;;;6.10;2.40;;;;;;;7.88;62.63;100601.70;231657;204;146985;-59
2024/02/18 02:00:58;;;;;;;7.30;2.80;;;;;;;7.90;62.68;100598.83;231720;199;153188;-55
2024/02/18 02:06:03;;;;;;;5.20;2.80;;;;;;;7.89;62.61;100594.27;231882;202;138488;-56
2024/02/18 02:11:07;;;;;;;5.00;2.80;;;;;;;7.88;62.69;100598.87;231727;198;138012;-55
2024/02/18 02:16:10;;;;;;;5.10;2.90;;;;;;;7.88;62.56;100595.33;231947;201;153511;-57
2024/02/18 02:21:13;;;;;;;6.90;2.60;;;;;;;7.87;62.66;100595.00;231975;198;137685;-57
2024/02/18 02:26:19;;;;;;;6.50;2.80;;;;;;;7.88;62.51;100594.98;231900;198;137873;-56
2024/02/18 02:31:23;;;;;;;5.70;2.90;;;;;;;7.80;62.79;100594.48;231827;205;153222;-57
2024/02/18 02:36:26;;;;;;;4.00;2.60;;;;;;;7.81;62.69;100601.34;231693;204;138768;-56
2024/02/18 02:41:29;;;;;;;7.40;2.80;;;;;;;7.82;62.58;100596.20;231923;204;137414;-55
2024/02/18 02:46:32;;;;;;;5.30;2.80;;;;;;;7.81;62.59;100600.28;232090;202;153168;-56
2024/02/18 02:51:35;;;;;;;8.80;3.10;;;;;;;7.82;62.79;100603.96;231608;205;139372;-56
2024/02/18 02:56:38;;;;;;;6.20;3.00;;;;;;;7.83;62.68;100601.64;231818;198;138919;-55
2024/02/18 03:01:41;;;;;;;5.90;3.30;;;;;;;7.82;62.92;100606.80;231939;204;152959;-55
2024/02/18 03:06:46;;;;;;;6.40;3.00;;;;;;;7.81;63.22;100605.94;231818;198;138141;-55
2024/02/18 03:11:49;;;;;;;6.60;3.10;;;;;;;7.82;63.19;100603.77;232045;198;137358;-56
2024/02/18 03:16:53;;;;;;;8.40;3.50;;;;;;;7.82;63.27;100608.56;231885;205;153200;-57
2024/02/18 03:21:56;;;;;;;6.60;3.70;;;;;;;7.81;63.30;100610.70;231978;198;137445;-59
2024/02/18 03:27:00;;;;;;;8.10;3.60;;;;;;;7.79;63.50;100616.58;231956;204;137627;-60
2024/02/18 03:32:04;;;;;;;7.20;3.30;;;;;;;7.77;63.50;100617.35;231954;197;152925;-60
2024/02/18 03:37:07;;;;;;;8.00;3.80;;;;;;;7.77;63.52;100615.93;231993;204;137539;-60
2024/02/18 03:42:10;;;;;;;6.60;3.50;;;;;;;7.73;63.66;100618.52;231899;204;137520;-59
2024/02/18 03:47:14;;;;;;;6.70;3.40;;;;;;;7.70;63.56;100619.45;231904;198;152757;-59
2024/02/18 03:52:17;;;;;;;7.00;3.70;;;;;;;7.69;63.56;100627.62;231874;197;137623;-58
2024/02/18 03:57:20;;;;;;;7.20;3.30;;;;;;;7.68;63.29;100628.52;231834;205;140688;-59
2024/02/18 04:02:24;;;;;;;7.40;3.30;;;;;;;7.72;63.08;100629.31;231928;198;154850;-59
2024/02/18 04:07:27;;;;;;;8.20;3.70;;;;;;;7.70;62.81;100625.99;231887;198;138270;-59
2024/02/18 04:12:31;;;;;;;8.90;3.50;;;;;;;7.71;62.54;100623.34;231805;198;142105;-65
2024/02/18 04:17:34;;;;;;;6.20;3.30;;;;;;;7.75;62.30;100623.21;232060;201;154534;-59
2024/02/18 04:22:38;;;;;;;9.00;3.60;;;;;;;7.77;62.09;100618.23;232177;198;137569;-60
2024/02/18 04:27:41;;;;;;;7.20;3.20;;;;;;;7.79;61.83;100623.48;232002;202;146688;-60
2024/02/18 04:32:44;;;;;;;6.30;2.70;;;;;;;7.69;61.43;100627.61;232039;204;154353;-58
2024/02/18 04:37:47;;;;;;;6.60;2.90;;;;;;;7.62;61.36;100633.08;231961;198;140146;-59
2024/02/18 04:42:50;;;;;;;7.10;2.80;;;;;;;7.61;61.17;100640.53;232014;204;137477;-56
2024/02/18 04:47:53;;;;;;;5.70;3.10;;;;;;;7.64;61.22;100643.09;231809;198;153935;-58
2024/02/18 04:52:57;;;;;;;4.60;2.50;;;;;;;7.69;61.70;100644.41;231980;201;137840;-60
2024/02/18 04:58:00;;;;;;;6.00;3.40;;;;;;;7.73;62.27;100649.06;231970;198;138502;-59
2024/02/18 05:03:04;;;;;;;8.50;3.50;;;;;;;7.75;62.23;100649.02;231832;198;154182;-58
2024/02/18 05:08:07;;;;;;;9.90;3.50;;;;;;;7.75;61.88;100647.08;231862;204;137432;-58
2024/02/18 05:13:11;;;;;;;7.10;3.70;;;;;;;7.74;61.75;100649.73;231974;204;137708;-58
2024/02/18 05:18:14;;;;;;;6.00;3.60;;;;;;;7.74;61.56;100654.85;231959;204;153270;-60
2024/02/18 05:23:17;;;;;;;7.20;3.20;;;;;;;7.77;61.29;100657.80;231915;201;137425;-60
2024/02/18 05:28:20;;;;;;;5.00;3.10;;;;;;;7.74;61.20;100660.52;231921;205;137637;-58
2024/02/18 05:33:24;;;;;;;7.40;3.40;;;;;;;7.76;61.01;100661.37;231827;197;154482;-61
2024/02/18 05:38:28;;;;;;;4.90;3.60;;;;;;;7.77;61.23;100664.50;231875;198;138219;-59
2024/02/18 05:43:31;;;;;;;5.40;3.20;;;;;;;7.78;61.62;100660.44;231896;198;137818;-58
2024/02/18 05:48:34;;;;;;;4.70;2.90;;;;;;;7.78;61.55;100666.43;231911;204;153396;-60
2024/02/18 05:53:38;;;;;;;4.30;2.80;;;;;;;7.79;61.27;100663.92;231765;202;138147;-56
2024/02/18 05:58:41;;;;;;;5.90;2.30;;;;;;;7.80;61.28;100658.41;231939;198;138509;-55
2024/02/18 06:03:44;;;;;;;4.30;2.30;;;;;;;7.81;61.02;100664.41;231907;201;153052;-56
2024/02/18 06:08:48;;;;;;;5.40;2.40;;;;;;;7.81;60.79;100676.24;231754;198;137489;-56
2024/02/18 06:13:51;;;;;;;5.00;2.10;;;;;;;7.80;60.78;100680.32;231810;202;137902;-56
2024/02/18 06:18:54;;;;;;;6.40;2.30;;;;;;;7.80;60.59;100683.51;231779;198;153110;-55
2024/02/18 06:23:59;;;;;;;5.10;2.40;;;;;;;7.79;60.41;100691.48;231915;198;137628;-56
2024/02/18 06:29:02;;;;;;;6.10;2.40;;;;;;;7.79;60.05;100690.09;231837;198;137644;-56
2024/02/18 06:34:06;;;;;;;4.70;2.50;;;;;;;7.79;59.58;100684.77;231934;205;153600;-55
2024/02/18 06:39:11;;;;;;;4.90;2.20;;;;;;;7.82;58.41;100690.73;231682;202;141371;-57
2024/02/18 06:44:14;;;;;;;3.90;2.00;;;;;;;7.85;58.46;100695.60;231955;204;137839;-56
2024/02/18 06:49:17;;;;;;;4.70;2.50;;;;;;;7.87;58.78;100695.39;231835;198;153809;-56
2024/02/18 06:54:21;;;;;;;7.50;2.10;;;;;;;7.88;58.94;100698.36;231745;198;137132;-57
2024/02/18 06:59:24;;;;;;;47.70;34.10;;;;;;;8.01;61.51;100702.81;231805;205;137366;-56
2024/02/18 07:04:27;;;;;;;286.20;206.20;;;;;;;8.08;58.63;100709.89;231777;198;153172;-59
2024/02/18 07:09:31;;;;;;;6.50;4.40;;;;;;;8.13;57.79;100711.16;231770;204;138451;-59
2024/02/18 07:14:36;;;;;;;4.80;2.80;;;;;;;8.16;57.09;100706.31;231798;198;136950;-58
2024/02/18 07:19:39;;;;;;;33.40;23.10;;;;;;;8.24;57.21;100702.22;231693;205;154592;-58
2024/02/18 07:24:43;;;;;;;4.60;3.00;;;;;;;8.32;56.28;100711.92;231812;204;138409;-58
2024/02/18 07:29:47;;;;;;;4.30;2.40;;;;;;;8.27;56.06;100713.29;231909;204;138033;-58
2024/02/18 07:34:50;;;;;;;7.00;2.30;;;;;;;8.31;55.57;100720.09;231864;198;154037;-58
2024/02/18 07:39:53;;;;;;;3.10;2.20;;;;;;;8.31;56.23;100723.27;231897;198;138465;-58
2024/02/18 07:44:57;;;;;;;5.00;2.20;;;;;;;8.32;55.10;100725.35;231709;198;138255;-59
2024/02/18 07:50:00;;;;;;;3.60;2.10;;;;;;;8.28;54.64;100727.23;231840;198;153216;-57
2024/02/18 07:55:04;;;;;;;3.40;2.20;;;;;;;8.27;54.33;100730.08;231712;198;137905;-54
2024/02/18 08:00:08;;;;;;;3.90;2.30;;;;;;;8.29;54.08;100728.45;231706;199;138864;-55
2024/02/18 08:05:11;;;;;;;4.10;2.40;;;;;;;8.25;53.55;100734.91;231836;198;153055;-57
2024/02/18 08:10:15;;;;;;;3.70;2.40;;;;;;;8.28;53.24;100736.77;232010;198;138300;-58
2024/02/18 08:15:18;;;;;;;3.10;2.30;;;;;;;8.41;52.55;100731.88;231836;205;138163;-57
2024/02/18 08:20:22;;;;;;;33.80;25.20;;;;;;;8.50;51.71;100732.71;231776;204;153623;-55
2024/02/18 08:25:25;;;;;;;7.10;3.40;;;;;;;8.52;50.93;100737.08;231671;198;138074;-56
2024/02/18 08:30:29;;;;;;;4.30;2.50;;;;;;;8.46;50.64;100735.81;231816;201;137973;-54
2024/02/18 08:35:32;;;;;;;5.10;2.40;;;;;;;8.48;50.45;100743.02;231778;201;153403;-53
2024/02/18 08:40:36;;;;;;;5.40;2.90;;;;;;;8.52;51.01;100741.86;231932;201;137328;-55
2024/02/18 08:45:39;;;;;;;5.70;2.60;;;;;;;8.55;50.51;100743.02;231869;201;138064;-54
2024/02/18 08:50:42;;;;;;;5.30;2.90;;;;;;;8.55;50.35;100745.30;231826;197;154167;-53
2024/02/18 08:55:46;;;;;;;5.30;2.90;;;;;;;8.57;50.33;100744.03;231879;198;137423;-54
2024/02/18 09:00:50;;;;;;;4.50;2.60;;;;;;;8.68;50.08;100755.05;231878;197;137795;-53
2024/02/18 09:05:53;;;;;;;6.10;3.40;;;;;;;8.81;49.52;100760.55;231863;201;153709;-53
2024/02/18 09:10:56;;;;;;;4.40;3.10;;;;;;;8.95;49.79;100762.10;231938;204;137510;-54
2024/02/18 09:16:00;;;;;;;5.80;3.70;;;;;;;9.10;50.05;100761.35;231953;201;138577;-53
2024/02/18 09:21:04;;;;;;;5.90;3.00;;;;;;;9.20;49.70;100756.27;231881;197;154578;-54
2024/02/18 09:26:10;;;;;;;4.50;2.90;;;;;;;9.31;49.53;100756.31;231821;201;138099;-56
2024/02/18 09:31:14;;;;;;;6.50;2.90;;;;;;;9.35;49.64;100755.30;231818;198;138310;-56
2024/02/18 09:36:17;;;;;;;6.10;2.70;;;;;;;9.44;49.45;100751.15;231812;198;153172;-45
2024/02/18 09:41:23;;;;;;;6.60;4.70;;;;;;;9.67;50.97;100750.96;231787;201;137495;-57
2024/02/18 09:46:27;;;;;;;5.40;3.30;;;;;;;9.78;49.46;100747.44;232089;204;138479;-59
2024/02/18 09:51:37;;;;;;;6.30;3.10;;;;;;;9.79;49.07;100743.34;231783;204;155018;-57
2024/02/18 09:56:41;;;;;;;5.10;2.90;;;;;;;9.80;49.01;100731.25;231775;204;138293;-58
2024/02/18 10:01:51;;;;;;;5.90;3.10;;;;;;;9.87;48.78;100727.14;231941;204;138672;-58
2024/02/18 10:06:55;;;;;;;5.50;2.90;;;;;;;9.89;48.27;100724.78;231933;198;153806;-48
2024/02/18 10:11:59;;;;;;;13.80;10.40;;;;;;;9.88;49.42;100720.20;231802;205;137486;-60
2024/02/18 10:17:02;;;;;;;6.90;3.60;;;;;;;9.87;49.07;100715.59;231921;202;138895;-59
2024/02/18 10:22:06;;;;;;;4.90;3.00;;;;;;;9.76;48.38;100719.68;232058;205;153919;-59
2024/02/18 10:27:09;;;;;;;4.30;2.90;;;;;;;9.68;48.43;100718.51;231845;198;138621;-59
2024/02/18 10:32:12;;;;;;;4.70;2.50;;;;;;;9.72;48.08;100709.89;231847;198;138015;-56
2024/02/18 10:37:29;;;;;;;6.50;3.20;;;;;;;9.70;48.25;100698.95;231747;198;153764;-56
2024/02/18 10:42:37;;;;;;;5.20;3.10;;;;;;;9.74;48.63;100692.10;231678;205;138100;-57
2024/02/18 10:47:44;;;;;;;5.00;3.20;;;;;;;9.73;48.24;100684.86;231741;198;138105;-56
2024/02/18 10:53:11;;;;;;;10.20;6.10;;;;;;;9.71;47.96;100678.55;231871;198;153179;-56
2024/02/18 10:58:30;;;;;;;5.40;3.30;;;;;;;9.67;48.06;100668.01;231705;198;138260;-57
2024/02/18 11:03:42;;;;;;;11.50;7.80;;;;;;;9.73;49.38;100667.48;231775;198;137794;-54
2024/02/18 11:08:47;;;;;;;6.40;3.60;;;;;;;9.80;48.61;100660.91;231705;198;154704;-57
2024/02/18 11:13:52;;;;;;;6.10;3.70;;;;;;;9.79;48.21;100658.27;231942;198;137948;-57
2024/02/18 11:18:58;;;;;;;7.00;4.00;;;;;;;9.78;48.00;100653.13;231846;204;137085;-58
2024/02/18 11:24:02;;;;;;;5.50;3.50;;;;;;;9.83;47.91;100654.23;231851;198;154441;-57
2024/02/18 11:29:06;;;;;;;6.80;4.00;;;;;;;9.79;47.57;100642.69;231731;204;137660;-57
2024/02/18 11:34:09;;;;;;;8.90;4.00;;;;;;;9.81;47.58;100631.09;232012;199;138474;-57
2024/02/18 11:39:13;;;;;;;8.20;4.30;;;;;;;9.91;47.82;100626.83;231790;198;153120;-57
2024/02/18 11:44:18;;;;;;;6.70;4.30;;;;;;;10.06;47.52;100620.63;231761;204;140749;-57
2024/02/18 11:49:23;;;;;;;5.70;4.00;;;;;;;10.14;47.01;100606.00;231925;202;137892;-58
2024/02/18 11:54:27;;;;;;;6.40;4.10;;;;;;;10.21;47.10;100603.11;231619;205;153192;-58
2024/02/18 11:59:33;;;;;;;7.20;4.10;;;;;;;10.27;47.13;100593.34;231877;198;138114;-58
2024/02/18 12:04:36;;;;;;;6.40;3.80;;;;;;;10.34;47.34;100593.60;231937;202;138989;-58
2024/02/18 12:09:42;;;;;;;7.30;3.70;;;;;;;10.37;46.86;100587.30;231702;202;153182;-58
2024/02/18 12:14:50;;;;;;;14.10;8.30;;;;;;;10.41;47.01;100583.42;231645;205;137459;-59
2024/02/18 12:19:53;;;;;;;6.20;3.80;;;;;;;10.93;47.39;100573.48;231778;199;138061;-59
2024/02/18 12:24:57;;;;;;;326.90;228.60;;;;;;;11.49;45.90;100563.59;231765;198;156694;-58
2024/02/18 12:30:03;;;;;;;18.30;10.60;;;;;;;11.65;46.15;100553.00;231902;201;138382;-57
2024/02/18 12:35:07;;;;;;;5.80;3.90;;;;;;;11.57;45.12;100540.52;231810;202;138326;-59
2024/02/18 12:40:14;;;;;;;6.40;4.00;;;;;;;11.62;44.48;100539.08;231892;204;153933;-59
2024/02/18 12:45:22;;;;;;;6.90;4.00;;;;;;;11.54;44.66;100527.69;231843;205;139065;-59
2024/02/18 12:51:08;;;;;;;6.20;4.30;;;;;;;11.51;44.26;100522.45;231773;199;137624;-59
2024/02/18 12:56:15;;;;;;;8.80;4.50;;;;;;;11.49;44.37;100520.22;231913;201;153647;-63
2024/02/18 13:01:19;;;;;;;6.80;4.20;;;;;;;11.68;43.96;100521.21;231545;198;137588;-62
2024/02/18 13:06:24;;;;;;;285.20;216.60;;;;;;;11.82;44.73;100517.25;231735;202;138645;-62
2024/02/18 13:11:28;;;;;;;9.40;6.50;;;;;;;11.93;44.63;100513.77;231334;198;153386;-62
2024/02/18 13:16:31;;;;;;;15.90;10.00;;;;;;;11.97;43.85;100515.35;231579;204;137550;-62
2024/02/18 13:21:34;;;;;;;7.80;4.20;;;;;;;11.92;43.15;100507.93;231485;202;138790;-61
2024/02/18 13:26:38;;;;;;;6.20;4.40;;;;;;;11.85;42.84;100499.86;231547;198;153386;-62
2024/02/18 13:31:41;;;;;;;5.90;4.10;;;;;;;11.77;42.94;100498.08;231630;198;137539;-62
2024/02/18 13:36:46;;;;;;;7.60;4.40;;;;;;;11.75;43.07;100492.61;231531;198;138470;-56
2024/02/18 13:41:50;;;;;;;6.60;4.70;;;;;;;11.77;42.68;100485.45;231744;204;154301;-56
2024/02/18 13:46:54;;;;;;;7.30;4.30;;;;;;;11.71;43.00;100482.50;231735;201;138257;-57
2024/02/18 13:51:58;;;;;;;7.00;4.20;;;;;;;11.59;42.81;100476.80;231752;198;138627;-57
2024/02/18 13:57:01;;;;;;;268.90;192.70;;;;;;;11.35;43.38;100474.96;231535;198;154603;-61
2024/02/18 14:02:05;;;;;;;11.80;7.50;;;;;;;11.32;44.99;100468.89;231605;198;141813;-56
2024/02/18 14:07:09;;;;;;;6.50;4.80;;;;;;;11.20;43.79;100461.90;231679;198;138262;-56
2024/02/18 14:12:13;;;;;;;5.80;4.20;;;;;;;11.06;43.75;100457.52;231697;204;153268;-56
2024/02/18 14:17:19;;;;;;;9.40;4.70;;;;;;;10.90;43.82;100453.57;231814;205;137513;-56
2024/02/18 14:22:22;;;;;;;5.80;4.50;;;;;;;10.72;43.93;100445.95;231823;204;138176;-55
2024/02/18 14:27:25;;;;;;;43.90;31.60;;;;;;;10.55;44.59;100448.95;231664;202;159152;-55
2024/02/18 14:32:28;;;;;;;9.30;5.10;;;;;;;10.54;45.10;100445.07;231553;205;138741;-50
2024/02/18 14:37:33;;;;;;;8.00;4.90;;;;;;;10.42;45.03;100440.21;231631;198;141244;-56
2024/02/18 14:42:38;;;;;;;7.00;4.40;;;;;;;10.26;44.88;100439.23;231640;198;152985;-57
2024/02/18 14:47:42;;;;;;;6.30;4.40;;;;;;;9.99;45.15;100440.20;231711;204;140980;-58
2024/02/18 14:52:46;;;;;;;9.70;5.30;;;;;;;9.83;45.54;100435.14;231629;201;139664;-57
2024/02/18 14:57:49;;;;;;;5.80;4.70;;;;;;;9.78;45.97;100435.15;231643;201;153386;-57
2024/02/18 15:02:53;;;;;;;9.70;5.10;;;;;;;9.66;46.97;100433.27;232050;201;138290;-57
2024/02/18 15:07:56;;;;;;;7.30;4.90;;;;;;;9.58;47.07;100420.80;231967;201;138689;-56
2024/02/18 15:13:00;;;;;;;7.70;4.60;;;;;;;9.52;47.14;100413.56;232013;196;152974;-61
2024/02/18 15:18:04;;;;;;;8.90;5.10;;;;;;;9.41;47.56;100412.34;231950;196;138203;-60
2024/02/18 15:23:08;;;;;;;29.90;23.30;;;;;;;9.29;47.72;100403.20;232013;201;138307;-58
2024/02/18 15:28:11;;;;;;;9.50;5.40;;;;;;;9.32;51.86;100401.70;232179;202;154127;-61
2024/02/18 15:33:14;;;;;;;7.20;5.00;;;;;;;9.36;48.76;100397.66;231919;198;137609;-60
2024/02/18 15:38:19;;;;;;;8.70;5.50;;;;;;;9.20;48.82;100387.23;232252;202;137884;-60
2024/02/18 15:43:23;;;;;;;9.70;5.00;;;;;;;9.09;49.26;100386.04;232122;204;153341;-58
2024/02/18 15:48:26;;;;;;;9.70;5.30;;;;;;;8.96;49.28;100386.11;232099;198;138157;-59
2024/02/18 15:53:29;;;;;;;9.90;5.20;;;;;;;8.81;49.66;100386.42;231840;197;138015;-59
2024/02/18 15:58:33;;;;;;;8.50;5.80;;;;;;;8.66;50.19;100392.40;232045;201;153872;-60
2024/02/18 16:03:40;;;;;;;8.60;5.50;;;;;;;8.53;50.66;100391.26;232001;204;138371;-62
2024/02/18 16:08:44;;;;;;;10.50;6.30;;;;;;;8.38;51.16;100385.69;232111;197;138729;-59
2024/02/18 16:13:48;;;;;;;8.90;6.00;;;;;;;8.25;51.20;100386.77;232098;204;153975;-61
2024/02/18 16:18:51;;;;;;;104.70;47.20;;;;;;;8.23;52.15;100375.33;232103;196;138226;-61
2024/02/18 16:23:57;;;;;;;17.50;9.10;;;;;;;8.22;52.21;100365.48;231841;201;139182;-59
2024/02/18 16:29:03;;;;;;;13.90;8.30;;;;;;;8.10;52.34;100363.21;232114;197;153638;-61
2024/02/18 16:34:06;;;;;;;16.40;8.70;;;;;;;7.97;52.54;100362.00;231967;201;153431;-61
2024/02/18 16:39:10;;;;;;;15.40;8.40;;;;;;;7.90;52.71;100364.69;232020;204;137930;-61
2024/02/18 16:44:17;;;;;;;15.50;8.30;;;;;;;7.80;52.80;100364.98;231938;202;153141;-62
2024/02/18 16:49:20;;;;;;;12.00;7.90;;;;;;;7.70;52.76;100365.98;231963;197;141694;-60
2024/02/18 16:54:25;;;;;;;12.80;8.50;;;;;;;7.59;52.90;100357.98;232145;201;138631;-63
2024/02/18 16:59:28;;;;;;;12.00;8.30;;;;;;;7.51;53.04;100361.73;231857;197;153322;-63
2024/02/18 17:04:31;;;;;;;15.30;8.10;;;;;;;7.41;53.30;100362.40;232196;204;138764;-63
2024/02/18 17:09:35;;;;;;;15.70;9.10;;;;;;;7.32;53.31;100348.51;232126;201;137199;-64
2024/02/18 17:14:38;;;;;;;14.40;8.90;;;;;;;7.26;53.48;100340.19;232039;197;153173;-64
2024/02/18 17:19:41;;;;;;;19.90;10.00;;;;;;;7.20;53.58;100335.23;231957;197;140285;-65
2024/02/18 17:24:48;;;;;;;15.50;10.30;;;;;;;7.16;53.65;100330.59;231336;204;140103;-64
2024/02/18 17:29:52;;;;;;;14.80;9.80;;;;;;;7.08;53.90;100323.05;231835;198;154070;-63
2024/02/18 17:34:55;;;;;;;17.90;10.40;;;;;;;7.00;54.08;100323.98;232046;204;139492;-63
2024/02/18 17:39:59;;;;;;;19.50;11.80;;;;;;;6.91;54.36;100318.20;232060;197;138124;-63
2024/02/18 17:45:03;;;;;;;23.20;13.90;;;;;;;6.86;54.48;100311.45;232158;197;154729;-64
2024/02/18 17:50:06;;;;;;;23.10;13.10;;;;;;;6.77;54.76;100307.29;231928;204;137503;-63
2024/02/18 17:55:10;;;;;;;17.00;10.60;;;;;;;6.63;54.79;100303.23;232101;197;141107;-63
2024/02/18 18:00:14;;;;;;;20.30;11.20;;;;;;;6.59;55.76;100298.57;231928;197;154647;-63
2024/02/18 18:05:17;;;;;;;14.00;9.20;;;;;;;6.58;55.37;100296.48;231927;204;140463;-63
2024/02/18 18:10:21;;;;;;;135.00;76.30;;;;;;;6.52;55.53;100294.00;232251;204;138360;-63
2024/02/18 18:15:25;;;;;;;69.10;41.60;;;;;;;6.52;55.61;100282.70;232059;201;153173;-64
2024/02/18 18:20:28;;;;;;;14.80;9.50;;;;;;;6.66;55.71;100268.94;232082;197;138261;-63
2024/02/18 18:25:32;;;;;;;13.60;9.60;;;;;;;6.59;55.15;100257.14;232217;204;137510;-63
2024/02/18 18:30:36;;;;;;;55.70;41.40;;;;;;;6.46;55.29;100249.89;232005;202;153011;-63
2024/02/18 18:35:39;;;;;;;18.40;11.60;;;;;;;6.39;55.76;100241.96;232126;198;138306;-64
2024/02/18 18:40:42;;;;;;;32.40;23.20;;;;;;;6.32;56.42;100241.09;232231;197;138268;-63
2024/02/18 18:45:46;;;;;;;38.90;28.40;;;;;;;6.49;56.54;100237.13;231982;201;153763;-63
2024/02/18 18:50:50;;;;;;;13.30;9.80;;;;;;;6.61;58.19;100233.27;231915;201;138390;-63
2024/02/18 18:55:53;;;;;;;14.40;10.50;;;;;;;6.90;55.54;100228.08;231909;198;138552;-59
2024/02/18 19:00:57;;;;;;;16.20;10.60;;;;;;;6.58;54.99;100219.80;231690;196;153936;-62
2024/02/18 19:06:01;;;;;;;15.90;10.70;;;;;;;6.37;55.24;100204.66;231747;198;139759;-62
2024/02/18 19:11:14;;;;;;;15.90;11.10;;;;;;;6.20;55.37;100188.88;231795;202;138874;-62
2024/02/18 19:16:17;;;;;;;16.30;11.10;;;;;;;6.04;55.71;100183.83;231905;204;154084;-59
2024/02/18 19:21:21;;;;;;;18.80;11.70;;;;;;;6.36;62.44;100174.14;231875;204;138804;-60
2024/02/18 19:26:25;;;;;;;18.10;11.70;;;;;;;6.82;56.53;100170.81;232005;197;138582;-60
2024/02/18 19:31:28;;;;;;;18.70;11.90;;;;;;;6.46;55.79;100165.64;231994;204;153175;-60
2024/02/18 19:36:32;;;;;;;20.90;12.10;;;;;;;6.20;55.78;100161.04;232042;204;138234;-60
2024/02/18 19:41:40;;;;;;;19.70;11.90;;;;;;;5.94;56.20;100162.22;231881;204;138200;-48
2024/02/18 19:46:45;;;;;;;20.70;12.60;;;;;;;6.59;63.84;100152.88;232082;204;153842;-54
2024/02/18 19:51:49;;;;;;;19.90;12.50;;;;;;;6.65;56.24;100150.29;231935;204;138281;-58
2024/02/18 19:56:53;;;;;;;181.50;143.40;;;;;;;6.20;56.14;100150.46;232083;196;138939;-59
2024/02/18 20:01:57;;;;;;;56.20;37.70;;;;;;;6.40;58.45;100139.89;232059;201;153921;-58
2024/02/18 20:07:01;;;;;;;22.10;14.00;;;;;;;6.35;56.59;100133.86;232097;204;139503;-58
2024/02/18 20:12:04;;;;;;;19.20;12.10;;;;;;;6.03;56.30;100129.93;232083;201;139072;-57
2024/02/18 20:17:12;;;;;;;18.60;12.10;;;;;;;5.77;56.61;100126.68;231897;198;153577;-60
2024/02/18 20:22:17;;;;;;;18.90;12.50;;;;;;;5.58;56.78;100120.13;232229;201;138806;-58
2024/02/18 20:27:20;;;;;;;20.90;14.20;;;;;;;5.43;57.32;100113.80;231950;198;139002;-57
2024/02/18 20:32:23;;;;;;;32.90;21.80;;;;;;;5.35;58.21;100116.95;231952;197;154797;-58
2024/02/18 20:37:28;;;;;;;23.10;14.40;;;;;;;5.29;57.76;100109.89;231803;204;138234;-57
2024/02/18 20:42:32;;;;;;;22.50;14.60;;;;;;;5.15;57.94;100109.85;232160;198;138926;-58
2024/02/18 20:47:35;;;;;;;20.00;13.50;;;;;;;5.08;58.22;100110.02;232173;204;152855;-58
2024/02/18 20:52:38;;;;;;;21.60;14.10;;;;;;;5.00;58.43;100100.86;232261;201;138274;-57
2024/02/18 20:57:44;;;;;;;20.10;13.40;;;;;;;4.97;58.69;100092.16;231986;204;139791;-58
2024/02/18 21:02:47;;;;;;;25.00;14.50;;;;;;;4.93;58.62;100086.61;231866;196;154372;-59
2024/02/18 21:07:51;;;;;;;21.90;14.00;;;;;;;4.97;59.58;100084.76;231946;201;142589;-57
2024/02/18 21:12:54;;;;;;;20.10;13.20;;;;;;;4.97;58.74;100081.79;232145;200;138200;-57
2024/02/18 21:17:58;;;;;;;21.70;14.50;;;;;;;4.91;58.94;100075.75;232052;202;153828;-59
2024/02/18 21:23:01;;;;;;;21.10;14.00;;;;;;;4.83;58.91;100065.05;231755;196;137788;-58
2024/02/18 21:28:04;;;;;;;23.80;14.80;;;;;;;4.78;59.04;100059.19;232054;198;138251;-58
2024/02/18 21:33:08;;;;;;;24.30;15.20;;;;;;;4.74;59.04;100051.52;232087;204;153441;-58
2024/02/18 21:38:11;;;;;;;29.20;15.60;;;;;;;4.69;59.21;100049.35;232080;204;139272;-58
2024/02/18 21:43:15;;;;;;;24.80;15.50;;;;;;;4.63;59.17;100038.23;231866;197;137909;-60
2024/02/18 21:48:19;;;;;;;29.40;17.00;;;;;;;4.56;59.36;100029.24;232158;204;153102;-59
2024/02/18 21:53:22;;;;;;;28.80;16.50;;;;;;;4.55;59.49;100035.95;232164;204;138353;-59
2024/02/18 21:58:28;;;;;;;28.60;16.60;;;;;;;4.49;59.68;100033.08;232252;204;138337;-59
2024/02/18 22:03:31;;;;;;;29.90;17.70;;;;;;;4.43;59.96;100030.04;232044;204;153034;-58
2024/02/18 22:08:35;;;;;;;25.80;16.80;;;;;;;4.38;60.22;100021.73;232099;200;137935;-59
2024/02/18 22:13:38;;;;;;;32.90;19.20;;;;;;;4.32;60.43;100010.27;232190;197;137399;-59
2024/02/18 22:18:41;;;;;;;32.30;18.30;;;;;;;4.28;60.58;100000.85;232028;198;153318;-57
2024/02/18 22:23:44;;;;;;;32.40;17.80;;;;;;;4.28;60.66;99998.75;232216;204;138013;-60
2024/02/18 22:28:48;;;;;;;29.50;18.60;;;;;;;4.26;60.71;99991.92;232302;198;138469;-59
2024/02/18 22:33:51;;;;;;;30.00;18.70;;;;;;;4.22;60.77;99986.23;231960;201;153342;-59
2024/02/18 22:38:56;;;;;;;34.10;18.40;;;;;;;4.14;61.03;99990.59;232042;204;137981;-59
2024/02/18 22:43:59;;;;;;;33.70;19.30;;;;;;;4.03;61.15;99990.29;232146;202;137569;-58
2024/02/18 22:49:03;;;;;;;32.00;19.70;;;;;;;3.94;61.57;99989.77;232074;204;153071;-59
2024/02/18 22:54:07;;;;;;;30.80;19.30;;;;;;;3.91;61.70;99990.88;231976;201;137674;-58
2024/02/18 22:59:10;;;;;;;35.30;19.30;;;;;;;3.85;61.85;99988.89;232299;204;137604;-59
2024/02/18 23:04:13;;;;;;;33.60;20.40;;;;;;;3.81;62.05;99984.42;232269;204;154141;-59
2024/02/18 23:09:16;;;;;;;29.20;17.90;;;;;;;3.75;62.28;99981.17;231790;200;138424;-58
2024/02/18 23:14:20;;;;;;;29.70;18.50;;;;;;;3.73;62.46;99977.72;231945;197;138471;-59
2024/02/18 23:19:23;;;;;;;32.90;19.80;;;;;;;3.71;62.65;99976.34;231797;198;154177;-58
2024/02/18 23:24:26;;;;;;;31.80;18.70;;;;;;;3.67;62.65;99972.73;231817;198;137986;-59